createdAt,value
2023-03-29T00:00:05.772Z,1009.1
2023-03-29T00:01:06.859Z,1009.1
2023-03-29T00:02:07.936Z,1009
2023-03-29T00:03:08.829Z,1009
2023-03-29T00:04:09.895Z,1009
2023-03-29T00:05:10.778Z,1009
2023-03-29T00:06:11.753Z,1008.9
2023-03-29T00:07:15.812Z,1008.9
2023-03-29T00:08:17.254Z,1009
2023-03-29T00:09:18.863Z,1009
2023-03-29T00:10:19.770Z,1008.9
2023-03-29T00:11:20.752Z,1008.9
2023-03-29T00:12:21.734Z,1009
2023-03-29T00:13:22.818Z,1009
2023-03-29T00:14:23.831Z,1009
2023-03-29T00:15:24.811Z,1008.9
2023-03-29T00:16:25.814Z,1009
2023-03-29T00:17:26.827Z,1009
2023-03-29T00:18:27.893Z,1009
2023-03-29T00:19:28.819Z,1009
2023-03-29T00:20:29.817Z,1009
2023-03-29T00:21:30.799Z,1009
2023-03-29T00:22:31.773Z,1009
2023-03-29T00:23:32.811Z,1008.9
2023-03-29T00:24:33.803Z,1008.9
2023-03-29T00:25:34.891Z,1008.9
2023-03-29T00:26:35.791Z,1008.9
2023-03-29T00:27:36.775Z,1008.9
2023-03-29T00:28:37.777Z,1008.6
2023-03-29T00:29:38.810Z,1008.9
2023-03-29T00:30:39.771Z,1009
2023-03-29T00:31:40.842Z,1009
2023-03-29T00:32:41.868Z,1009
2023-03-29T00:33:42.791Z,1009
2023-03-29T00:34:43.811Z,1009.1
2023-03-29T00:35:44.872Z,1009
2023-03-29T00:36:45.772Z,1009
2023-03-29T00:37:46.707Z,1009
2023-03-29T00:38:47.776Z,1009
2023-03-29T00:39:48.856Z,1009
2023-03-29T00:40:49.883Z,1009
2023-03-29T00:41:50.811Z,1009
2023-03-29T00:42:51.774Z,1009
2023-03-29T00:43:52.791Z,1009
2023-03-29T00:44:53.831Z,1009
2023-03-29T00:45:54.745Z,1009
2023-03-29T00:46:55.791Z,1009
2023-03-29T00:47:56.847Z,1009
2023-03-29T00:48:57.814Z,1009
2023-03-29T00:49:58.893Z,1009
2023-03-29T00:52:00.811Z,1008.8
2023-03-29T00:53:01.794Z,1008.8
2023-03-29T00:54:02.795Z,1008.9
2023-03-29T00:55:03.893Z,1008.9
2023-03-29T00:56:04.757Z,1008.9
2023-03-29T00:57:05.829Z,1008.9
2023-03-29T00:58:06.829Z,1008.9
2023-03-29T00:59:07.806Z,1008.9
2023-03-29T01:00:08.839Z,1008.9
2023-03-29T01:01:09.797Z,1008.9
2023-03-29T01:02:10.824Z,1008.9
2023-03-29T01:03:11.920Z,1008.8
2023-03-29T01:04:12.848Z,1008.8
2023-03-29T01:05:13.820Z,1008.8
2023-03-29T01:06:14.793Z,1008.8
2023-03-29T01:07:15.816Z,1008.8
2023-03-29T01:08:16.814Z,1008.8
2023-03-29T01:09:17.854Z,1008.7
2023-03-29T01:10:18.901Z,1008.7
2023-03-29T01:11:19.939Z,1008.7
2023-03-29T01:12:20.855Z,1008.7
2023-03-29T01:13:21.809Z,1008.7
2023-03-29T01:14:22.817Z,1008.6
2023-03-29T01:15:23.843Z,1008.7
2023-03-29T01:16:24.840Z,1008.7
2023-03-29T01:17:25.905Z,1008.6
2023-03-29T01:18:26.863Z,1008.6
2023-03-29T01:19:27.875Z,1008.6
2023-03-29T01:20:28.854Z,1008.6
2023-03-29T01:21:29.855Z,1008.6
2023-03-29T01:22:30.840Z,1008.6
2023-03-29T01:23:31.807Z,1008.6
2023-03-29T01:24:32.829Z,1008.6
2023-03-29T01:25:33.820Z,1008.6
2023-03-29T01:26:34.882Z,1008.7
2023-03-29T01:27:35.939Z,1008.6
2023-03-29T01:28:36.795Z,1008.6
2023-03-29T01:29:37.815Z,1008.6
2023-03-29T01:30:38.796Z,1008.6
2023-03-29T01:31:39.869Z,1008.5
2023-03-29T01:32:40.809Z,1008.5
2023-03-29T01:33:41.776Z,1008.6
2023-03-29T01:34:42.801Z,1008.5
2023-03-29T01:35:43.907Z,1008.6
2023-03-29T01:36:44.887Z,1008.5
2023-03-29T01:37:45.847Z,1008.5
2023-03-29T01:38:46.794Z,1008.5
2023-03-29T01:39:47.796Z,1008.6
2023-03-29T01:40:48.865Z,1008.5
2023-03-29T01:41:49.814Z,1008.5
2023-03-29T01:42:50.766Z,1008.5
2023-03-29T01:43:51.857Z,1008.4
2023-03-29T01:44:52.795Z,1008.5
2023-03-29T01:45:53.840Z,1008.5
2023-03-29T01:46:54.824Z,1008.4
2023-03-29T01:47:55.840Z,1008.5
2023-03-29T01:48:56.902Z,1008.5
2023-03-29T01:49:57.779Z,1008.5
2023-03-29T01:50:58.817Z,1008.4
2023-03-29T01:51:59.811Z,1008.4
2023-03-29T01:53:00.824Z,1008.5
2023-03-29T01:54:01.915Z,1008.4
2023-03-29T01:55:02.759Z,1008.5
2023-03-29T01:56:03.825Z,1008.4
2023-03-29T01:57:04.902Z,1008.4
2023-03-29T01:58:05.833Z,1008.4
2023-03-29T01:59:06.874Z,1008.4
2023-03-29T02:00:07.834Z,1008.4
2023-03-29T02:01:08.845Z,1008.4
2023-03-29T02:02:09.843Z,1008.4
2023-03-29T02:03:10.944Z,1008.5
2023-03-29T02:04:11.876Z,1008.5
2023-03-29T02:05:12.835Z,1008.5
2023-03-29T02:06:13.851Z,1008.5
2023-03-29T02:07:14.914Z,1008.4
2023-03-29T02:08:15.836Z,1008.5
2023-03-29T02:09:16.814Z,1008.4
2023-03-29T02:10:17.811Z,1008.4
2023-03-29T02:11:18.892Z,1008.4
2023-03-29T02:12:19.840Z,1008.4
2023-03-29T02:13:20.841Z,1008.4
2023-03-29T02:14:21.815Z,1008.4
2023-03-29T02:15:22.861Z,1008.4
2023-03-29T02:16:23.832Z,1008.4
2023-03-29T02:17:24.927Z,1008.4
2023-03-29T02:18:25.773Z,1008.4
2023-03-29T02:19:26.872Z,1008.4
2023-03-29T02:20:27.832Z,1008.4
2023-03-29T02:21:28.853Z,1008.4
2023-03-29T02:22:29.892Z,1008.4
2023-03-29T02:23:30.833Z,1008.5
2023-03-29T02:24:31.801Z,1008.5
2023-03-29T02:25:32.817Z,1008.4
2023-03-29T02:26:33.766Z,1008.4
2023-03-29T02:27:34.917Z,1008.4
2023-03-29T02:28:35.794Z,1008.3
2023-03-29T02:29:36.901Z,1008.3
2023-03-29T02:30:37.817Z,1008.3
2023-03-29T02:31:38.908Z,1008.3
2023-03-29T02:32:39.925Z,1008.3
2023-03-29T02:33:40.792Z,1008.3
2023-03-29T02:34:41.883Z,1008.3
2023-03-29T02:35:42.839Z,1008.3
2023-03-29T02:36:43.820Z,1008.3
2023-03-29T02:37:45.399Z,1008.4
2023-03-29T02:38:46.833Z,1008.3
2023-03-29T02:39:47.832Z,1008.3
2023-03-29T02:40:48.812Z,1008.3
2023-03-29T02:41:49.820Z,1008.3
2023-03-29T02:42:50.843Z,1008.2
2023-03-29T02:43:51.859Z,1008.2
2023-03-29T02:44:52.813Z,1008.2
2023-03-29T02:45:53.839Z,1008.2
2023-03-29T02:46:54.880Z,1008.2
2023-03-29T02:47:55.843Z,1008.1
2023-03-29T02:48:56.883Z,1008.1
2023-03-29T02:49:57.850Z,1008.1
2023-03-29T02:50:58.874Z,1008.1
2023-03-29T02:51:59.817Z,1008.1
2023-03-29T02:53:00.816Z,1007.7
2023-03-29T02:54:01.821Z,1008
2023-03-29T02:55:02.907Z,1008.1
2023-03-29T02:56:03.837Z,1008
2023-03-29T02:57:04.960Z,1008.1
2023-03-29T02:58:05.897Z,1008
2023-03-29T02:59:06.821Z,1008.1
2023-03-29T03:00:07.966Z,1008.1
2023-03-29T03:01:08.897Z,1008.2
2023-03-29T03:02:09.872Z,1008.1
2023-03-29T03:03:10.922Z,1008.1
2023-03-29T03:04:11.874Z,1008
2023-03-29T03:05:12.916Z,1008
2023-03-29T03:06:13.814Z,1008
2023-03-29T03:07:14.898Z,1008
2023-03-29T03:08:15.889Z,1008
2023-03-29T03:09:16.843Z,1008
2023-03-29T03:10:17.858Z,1008
2023-03-29T03:11:18.920Z,1008
2023-03-29T03:12:19.895Z,1008
2023-03-29T03:13:20.880Z,1008
2023-03-29T03:14:21.847Z,1008
2023-03-29T03:15:22.877Z,1007.9
2023-03-29T03:16:24.398Z,1008
2023-03-29T03:17:25.960Z,1007.9
2023-03-29T03:18:26.826Z,1007.9
2023-03-29T03:19:27.837Z,1007.9
2023-03-29T03:20:28.901Z,1007.8
2023-03-29T03:21:29.916Z,1007.9
2023-03-29T03:22:30.857Z,1007.8
2023-03-29T03:23:31.888Z,1007.8
2023-03-29T03:24:32.893Z,1007.8
2023-03-29T03:25:33.823Z,1007.8
2023-03-29T03:26:34.854Z,1007.8
2023-03-29T03:27:35.908Z,1007.9
2023-03-29T03:28:36.895Z,1007.8
2023-03-29T03:29:37.894Z,1007.8
2023-03-29T03:30:38.874Z,1007.8
2023-03-29T03:31:39.900Z,1007.8
2023-03-29T03:32:40.830Z,1007.8
2023-03-29T03:33:41.978Z,1007.8
2023-03-29T03:34:42.909Z,1007.8
2023-03-29T03:35:43.928Z,1007.8
2023-03-29T03:36:44.965Z,1007.8
2023-03-29T03:37:45.891Z,1007.7
2023-03-29T03:38:46.859Z,1007.8
2023-03-29T03:39:47.890Z,1007.8
2023-03-29T03:40:48.872Z,1007.7
2023-03-29T03:41:49.852Z,1007.7
2023-03-29T03:42:50.868Z,1007.7
2023-03-29T03:43:51.850Z,1007.6
2023-03-29T03:44:52.856Z,1007.6
2023-03-29T03:45:54.029Z,1007.6
2023-03-29T03:46:54.910Z,1007.5
2023-03-29T03:47:55.891Z,1007.5
2023-03-29T03:48:56.849Z,1007.6
2023-03-29T03:49:57.890Z,1007.6
2023-03-29T03:50:59.076Z,1007.5
2023-03-29T03:51:59.869Z,1007.5
2023-03-29T03:53:00.840Z,1006.6
2023-03-29T03:54:01.910Z,1007.3
2023-03-29T03:55:02.928Z,1007.4
2023-03-29T03:56:03.813Z,1007.5
2023-03-29T03:57:04.902Z,1007.6
2023-03-29T03:58:05.957Z,1007.5
2023-03-29T03:59:06.910Z,1007.5
2023-03-29T04:00:07.891Z,1007.6
2023-03-29T04:01:08.892Z,1007.5
2023-03-29T04:02:09.889Z,1007.5
2023-03-29T04:03:10.985Z,1007.5
2023-03-29T04:04:11.910Z,1007.5
2023-03-29T04:05:12.879Z,1007.5
2023-03-29T04:06:13.869Z,1007.5
2023-03-29T04:07:14.870Z,1007.5
2023-03-29T04:08:15.880Z,1007.5
2023-03-29T04:09:16.909Z,1007.5
2023-03-29T04:10:17.870Z,1007.5
2023-03-29T04:11:18.875Z,1007.5
2023-03-29T04:12:19.908Z,1007.4
2023-03-29T04:13:20.976Z,1007.5
2023-03-29T04:14:21.887Z,1007.5
2023-03-29T04:15:22.869Z,1007.5
2023-03-29T04:16:23.921Z,1007.4
2023-03-29T04:17:24.959Z,1007.5
2023-03-29T04:18:25.969Z,1007.5
2023-03-29T04:19:26.882Z,1007.5
2023-03-29T04:20:27.887Z,1007.5
2023-03-29T04:21:28.838Z,1007.4
2023-03-29T04:22:29.870Z,1007.4
2023-03-29T04:23:30.911Z,1007.4
2023-03-29T04:24:31.869Z,1007.5
2023-03-29T04:25:32.918Z,1007.4
2023-03-29T04:26:33.881Z,1007.4
2023-03-29T04:27:34.958Z,1007.5
2023-03-29T04:28:35.886Z,1007.4
2023-03-29T04:29:36.913Z,1007.4
2023-03-29T04:30:37.963Z,1007.5
2023-03-29T04:31:38.901Z,1006.6
2023-03-29T04:32:39.916Z,1007.2
2023-03-29T04:33:40.876Z,1007.4
2023-03-29T04:34:41.857Z,1007.4
2023-03-29T04:35:42.936Z,1007.4
2023-03-29T04:36:44.034Z,1007.4
2023-03-29T04:37:44.899Z,1007.4
2023-03-29T04:38:47.646Z,1007.4
2023-03-29T04:39:46.915Z,1007.4
2023-03-29T04:40:47.875Z,1007.5
2023-03-29T04:41:48.888Z,1007.5
2023-03-29T04:42:49.921Z,1007.4
2023-03-29T04:43:50.921Z,1007.4
2023-03-29T04:44:51.885Z,1007.4
2023-03-29T04:45:52.896Z,1007.4
2023-03-29T04:46:54.014Z,1007.4
2023-03-29T04:47:54.897Z,1007.5
2023-03-29T04:48:55.917Z,1007.5
2023-03-29T04:49:56.981Z,1007.4
2023-03-29T04:50:57.899Z,1007.4
2023-03-29T04:51:58.977Z,1007.4
2023-03-29T04:52:59.956Z,1007.5
2023-03-29T04:54:00.802Z,1007.5
2023-03-29T04:55:01.922Z,1007.5
2023-03-29T04:56:02.937Z,1007.5
2023-03-29T04:57:03.930Z,1007.5
2023-03-29T04:58:04.921Z,1007.5
2023-03-29T04:59:05.906Z,1007.5
2023-03-29T05:00:06.982Z,1007.5
2023-03-29T05:01:07.966Z,1007.5
2023-03-29T05:02:08.976Z,1007.6
2023-03-29T05:03:09.928Z,1007.5
2023-03-29T05:04:12.602Z,1007.5
2023-03-29T05:05:11.921Z,1007.5
2023-03-29T05:06:12.963Z,1007.6
2023-03-29T05:07:13.896Z,1007.6
2023-03-29T05:08:14.897Z,1007.5
2023-03-29T05:09:15.954Z,1007.6
2023-03-29T05:10:16.933Z,1007.5
2023-03-29T05:11:17.934Z,1007.5
2023-03-29T05:12:18.966Z,1007.5
2023-03-29T05:13:19.936Z,1007.5
2023-03-29T05:14:20.954Z,1007.4
2023-03-29T05:15:21.958Z,1007.4
2023-03-29T05:16:22.986Z,1007.4
2023-03-29T05:17:23.957Z,1007.4
2023-03-29T05:18:24.916Z,1007.4
2023-03-29T05:19:26.084Z,1007.5
2023-03-29T05:20:27.180Z,1007.5
2023-03-29T05:21:27.894Z,1007.5
2023-03-29T05:22:28.881Z,1007.5
2023-03-29T05:23:29.896Z,1007.5
2023-03-29T05:24:30.975Z,1007.4
2023-03-29T05:25:31.959Z,1007.4
2023-03-29T05:26:32.981Z,1007.4
2023-03-29T05:27:33.914Z,1007.3
2023-03-29T05:28:34.955Z,1007.3
2023-03-29T05:29:35.981Z,1007.4
2023-03-29T05:30:36.956Z,1007.4
2023-03-29T05:31:38.079Z,1007.4
2023-03-29T05:32:39.001Z,1007.4
2023-03-29T05:33:39.954Z,1007.4
2023-03-29T05:34:40.898Z,1007.3
2023-03-29T05:35:41.917Z,1007.2
2023-03-29T05:36:42.924Z,1007.3
2023-03-29T05:37:43.974Z,1007.3
2023-03-29T05:38:44.975Z,1007.2
2023-03-29T05:39:45.932Z,1006.5
2023-03-29T05:40:46.913Z,1007.1
2023-03-29T05:41:48.053Z,1007.2
2023-03-29T05:42:48.871Z,1007.2
2023-03-29T05:43:49.993Z,1007.3
2023-03-29T05:44:52.785Z,1007.3
2023-03-29T05:45:51.972Z,1007.3
2023-03-29T05:46:52.911Z,1007.3
2023-03-29T05:47:53.934Z,1007.2
2023-03-29T05:48:54.991Z,1007.2
2023-03-29T05:49:55.953Z,1007.3
2023-03-29T05:50:56.954Z,1007.2
2023-03-29T05:51:57.952Z,1007.2
2023-03-29T05:52:58.870Z,1007.2
2023-03-29T05:53:59.959Z,1007.2
2023-03-29T05:55:00.972Z,1007.2
2023-03-29T05:56:01.893Z,1007.2
2023-03-29T05:57:02.962Z,1007.3
2023-03-29T05:58:03.937Z,1007.2
2023-03-29T05:59:04.980Z,1007.2
2023-03-29T06:00:05.954Z,1007.1
2023-03-29T06:01:06.933Z,1007.2
2023-03-29T06:02:07.999Z,1007.1
2023-03-29T06:03:17.894Z,1007.1
2023-03-29T06:04:10.003Z,1007.1
2023-03-29T06:05:10.954Z,1007.1
2023-03-29T06:06:11.936Z,1007.1
2023-03-29T06:07:12.994Z,1007.1
2023-03-29T06:08:13.962Z,1007
2023-03-29T06:09:14.969Z,1007
2023-03-29T06:10:15.936Z,1007
2023-03-29T06:11:16.954Z,1007
2023-03-29T06:12:17.993Z,1007
2023-03-29T06:13:18.969Z,1007
2023-03-29T06:14:19.955Z,1007.1
2023-03-29T06:15:20.986Z,1007
2023-03-29T06:16:21.974Z,1007
2023-03-29T06:17:23.045Z,1007
2023-03-29T06:18:23.974Z,1007.1
2023-03-29T06:19:24.964Z,1007.1
2023-03-29T06:20:25.934Z,1007.1
2023-03-29T06:21:26.954Z,1007.1
2023-03-29T06:22:27.953Z,1007
2023-03-29T06:23:28.934Z,1007
2023-03-29T06:24:29.959Z,1007.1
2023-03-29T06:25:30.962Z,1007.1
2023-03-29T06:26:31.973Z,1007
2023-03-29T06:27:32.973Z,1007
2023-03-29T06:28:33.943Z,1007
2023-03-29T06:29:34.895Z,1007
2023-03-29T06:30:36.066Z,1007
2023-03-29T06:31:37.118Z,1007
2023-03-29T06:32:37.988Z,1007
2023-03-29T06:33:38.991Z,1007
2023-03-29T06:34:39.963Z,1007
2023-03-29T06:35:40.925Z,1007
2023-03-29T06:36:42.024Z,1007
2023-03-29T06:37:42.936Z,1006.9
2023-03-29T06:38:43.988Z,1006.9
2023-03-29T06:39:44.984Z,1006.9
2023-03-29T06:40:45.917Z,1006.9
2023-03-29T06:41:47.016Z,1006.8
2023-03-29T06:42:47.901Z,1006.9
2023-03-29T06:43:48.976Z,1006.9
2023-03-29T06:44:49.957Z,1006.9
2023-03-29T06:45:50.952Z,1006.8
2023-03-29T06:46:52.078Z,1006.9
2023-03-29T06:47:53.089Z,1006.8
2023-03-29T06:48:54.005Z,1006.8
2023-03-29T06:49:54.958Z,1006.8
2023-03-29T06:50:55.966Z,1006.8
2023-03-29T06:51:57.026Z,1006.8
2023-03-29T06:52:57.998Z,1006.8
2023-03-29T06:53:59.064Z,1006.7
2023-03-29T06:54:59.958Z,1006.7
2023-03-29T06:56:01.001Z,1006.8
2023-03-29T06:57:02.104Z,1006.7
2023-03-29T06:58:03.116Z,1006.7
2023-03-29T06:59:03.958Z,1006.7
2023-03-29T07:00:05.146Z,1006.7
2023-03-29T07:01:06.296Z,1006.7
2023-03-29T07:02:07.011Z,1006.7
2023-03-29T07:03:07.980Z,1006.7
2023-03-29T07:04:09.523Z,1006.7
2023-03-29T07:05:11.017Z,1006.7
2023-03-29T07:06:11.979Z,1006.7
2023-03-29T07:07:12.979Z,1006.8
2023-03-29T07:08:14.035Z,1006.8
2023-03-29T07:09:15.499Z,1006.7
2023-03-29T07:10:15.955Z,1006.7
2023-03-29T07:11:16.991Z,1006.8
2023-03-29T07:12:17.995Z,1006.8
2023-03-29T07:13:18.965Z,1006.8
2023-03-29T07:14:19.997Z,1006.9
2023-03-29T07:15:20.954Z,1006.8
2023-03-29T07:16:22.035Z,1006.8
2023-03-29T07:17:23.034Z,1006.8
2023-03-29T07:18:24.036Z,1006.9
2023-03-29T07:19:24.961Z,1006.9
2023-03-29T07:20:25.992Z,1006.8
2023-03-29T07:21:27.046Z,1006.9
2023-03-29T07:22:27.973Z,1006.9
2023-03-29T07:23:29.016Z,1006.8
2023-03-29T07:24:29.992Z,1006.8
2023-03-29T07:25:30.977Z,1006.8
2023-03-29T07:26:31.956Z,1006.8
2023-03-29T07:27:33.028Z,1006.8
2023-03-29T07:28:34.016Z,1006.8
2023-03-29T07:29:35.035Z,1006.8
2023-03-29T07:30:35.974Z,1006.8
2023-03-29T07:31:36.962Z,1006.8
2023-03-29T07:32:38.014Z,1006.9
2023-03-29T07:33:39.183Z,1006.8
2023-03-29T07:34:40.033Z,1006.8
2023-03-29T07:35:41.046Z,1006.8
2023-03-29T07:36:42.083Z,1006.8
2023-03-29T07:37:43.060Z,1006.7
2023-03-29T07:38:43.972Z,1006.7
2023-03-29T07:39:45.036Z,1006.8
2023-03-29T07:40:46.111Z,1006.7
2023-03-29T07:41:47.006Z,1006.7
2023-03-29T07:42:48.031Z,1006.7
2023-03-29T07:43:49.028Z,1006.7
2023-03-29T07:44:50.011Z,1006.7
2023-03-29T07:45:51.094Z,1006.4
2023-03-29T07:46:52.002Z,1006.6
2023-03-29T07:47:53.023Z,1006.6
2023-03-29T07:48:53.945Z,1006.6
2023-03-29T07:49:54.975Z,1006.7
2023-03-29T07:50:56.012Z,1006.7
2023-03-29T07:51:57.025Z,1006.6
2023-03-29T07:52:58.004Z,1006.6
2023-03-29T07:53:59.010Z,1006.6
2023-03-29T07:54:59.990Z,1006.6
2023-03-29T07:56:00.999Z,1006.6
2023-03-29T07:57:02.051Z,1006.6
2023-03-29T07:58:03.062Z,1006.6
2023-03-29T07:59:04.034Z,1006.6
2023-03-29T08:00:05.033Z,1006.6
2023-03-29T08:01:06.384Z,1006.6
2023-03-29T08:02:07.041Z,1006.6
2023-03-29T08:03:08.079Z,1006.6
2023-03-29T08:04:09.148Z,1006.6
2023-03-29T08:05:10.158Z,1006.5
2023-03-29T08:06:11.011Z,1006.6
2023-03-29T08:07:12.026Z,1006.5
2023-03-29T08:08:13.036Z,1006.5
2023-03-29T08:09:14.035Z,1006.6
2023-03-29T08:10:15.001Z,1006.5
2023-03-29T08:11:16.152Z,1006.6
2023-03-29T08:12:16.985Z,1006.6
2023-03-29T08:13:18.053Z,1006.5
2023-03-29T08:14:19.011Z,1006.6
2023-03-29T08:15:20.020Z,1006.6
2023-03-29T08:16:21.071Z,1006.5
2023-03-29T08:17:22.031Z,1006.5
2023-03-29T08:18:23.057Z,1006.5
2023-03-29T08:19:24.030Z,1006.4
2023-03-29T08:20:25.043Z,1006.5
2023-03-29T08:21:25.994Z,1006.5
2023-03-29T08:22:27.014Z,1006.4
2023-03-29T08:23:28.063Z,1006.5
2023-03-29T08:24:29.028Z,1006.5
2023-03-29T08:25:30.046Z,1006.4
2023-03-29T08:26:30.952Z,1006.5
2023-03-29T08:27:32.022Z,1006.4
2023-03-29T08:28:33.357Z,1006.4
2023-03-29T08:29:34.023Z,1006.5
2023-03-29T08:30:35.057Z,1006.4
2023-03-29T08:31:36.156Z,1006.4
2023-03-29T08:32:37.049Z,1006.4
2023-03-29T08:33:38.045Z,1006.4
2023-03-29T08:34:39.406Z,1006.4
2023-03-29T08:35:41.006Z,1006.4
2023-03-29T08:36:42.008Z,1006.3
2023-03-29T08:37:43.025Z,1006.3
2023-03-29T08:38:44.108Z,1006.4
2023-03-29T08:39:45.034Z,1006.4
2023-03-29T08:40:45.999Z,1006.3
2023-03-29T08:41:46.961Z,1006.3
2023-03-29T08:42:47.983Z,1006.4
2023-03-29T08:43:49.016Z,1006.3
2023-03-29T08:44:50.056Z,1006.3
2023-03-29T08:45:51.274Z,1006.3
2023-03-29T08:46:52.088Z,1006.3
2023-03-29T08:47:53.170Z,1006.3
2023-03-29T08:48:54.039Z,1006.3
2023-03-29T08:49:55.147Z,1006.2
2023-03-29T08:50:55.995Z,1006.3
2023-03-29T08:51:57.071Z,1006.2
2023-03-29T08:52:58.040Z,1006.2
2023-03-29T08:53:59.043Z,1006.2
2023-03-29T08:55:00.042Z,1006.2
2023-03-29T08:56:01.065Z,1006.2
2023-03-29T08:57:02.087Z,1006.2
2023-03-29T08:58:03.051Z,1006.2
2023-03-29T08:59:03.995Z,1006.3
2023-03-29T09:00:05.001Z,1006
2023-03-29T09:01:06.084Z,1006.2
2023-03-29T09:02:07.052Z,1006.2
2023-03-29T09:03:08.162Z,1005.8
2023-03-29T09:04:09.235Z,1006.2
2023-03-29T09:05:10.030Z,1006.2
2023-03-29T09:06:11.017Z,1006.2
2023-03-29T09:07:12.056Z,1006.2
2023-03-29T09:08:13.045Z,1006.3
2023-03-29T09:09:14.016Z,1006.2
2023-03-29T09:10:14.996Z,1006.2
2023-03-29T09:11:16.035Z,1006.2
2023-03-29T09:12:17.057Z,1006.2
2023-03-29T09:13:18.179Z,1006.2
2023-03-29T09:14:19.021Z,1006.2
2023-03-29T09:15:20.022Z,1006.2
2023-03-29T09:16:21.177Z,1006.2
2023-03-29T09:17:22.041Z,1006.2
2023-03-29T09:18:23.103Z,1006.2
2023-03-29T09:19:24.081Z,1006.2
2023-03-29T09:20:25.146Z,1006.2
2023-03-29T09:21:26.073Z,1006.2
2023-03-29T09:22:27.033Z,1006.1
2023-03-29T09:23:28.055Z,1006.1
2023-03-29T09:24:29.033Z,1006
2023-03-29T09:25:30.058Z,1006
2023-03-29T09:26:31.158Z,1006
2023-03-29T09:27:32.100Z,1006.1
2023-03-29T09:28:33.038Z,1006
2023-03-29T09:29:34.070Z,1006.1
2023-03-29T09:30:35.073Z,1006.1
2023-03-29T09:31:36.070Z,1006.1
2023-03-29T09:32:37.089Z,1006.1
2023-03-29T09:33:38.040Z,1006
2023-03-29T09:34:39.072Z,1006
2023-03-29T09:35:40.072Z,1006
2023-03-29T09:36:41.076Z,1006
2023-03-29T09:37:42.012Z,1006
2023-03-29T09:38:42.995Z,1005.9
2023-03-29T09:39:44.057Z,1005.9
2023-03-29T09:40:45.040Z,1005.9
2023-03-29T09:41:46.083Z,1005.9
2023-03-29T09:42:47.059Z,1005.9
2023-03-29T09:43:48.074Z,1005.9
2023-03-29T09:44:49.067Z,1005.9
2023-03-29T09:45:50.103Z,1005.8
2023-03-29T09:46:54.133Z,1005.9
2023-03-29T09:47:55.100Z,1005.9
2023-03-29T09:48:56.079Z,1005.9
2023-03-29T09:49:57.052Z,1005.9
2023-03-29T09:50:58.002Z,1005.9
2023-03-29T09:51:59.092Z,1005.9
2023-03-29T09:53:00.027Z,1005.9
2023-03-29T09:54:01.126Z,1005.8
2023-03-29T09:55:02.164Z,1005.9
2023-03-29T09:56:03.068Z,1005.8
2023-03-29T09:57:04.126Z,1005.7
2023-03-29T09:58:05.115Z,1005.7
2023-03-29T09:59:06.034Z,1005.8
2023-03-29T10:00:07.091Z,1005.7
2023-03-29T10:01:08.117Z,1005.8
2023-03-29T10:02:09.105Z,1005.8
2023-03-29T10:03:10.773Z,1005.7
2023-03-29T10:04:11.236Z,1005.1
2023-03-29T10:05:12.133Z,1005.6
2023-03-29T10:06:13.018Z,1005.7
2023-03-29T10:07:14.093Z,1005.7
2023-03-29T10:08:16.635Z,1005.7
2023-03-29T10:09:16.057Z,1005.7
2023-03-29T10:10:17.072Z,1005.6
2023-03-29T10:11:18.048Z,1005.6
2023-03-29T10:12:19.032Z,1005.6
2023-03-29T10:13:20.114Z,1005.6
2023-03-29T10:14:21.054Z,1005.5
2023-03-29T10:16:23.109Z,1005.5
2023-03-29T10:17:24.119Z,1005.5
2023-03-29T10:18:25.354Z,1005.5
2023-03-29T10:19:26.087Z,1005.5
2023-03-29T10:20:27.073Z,1005.5
2023-03-29T10:21:28.070Z,1005.6
2023-03-29T10:22:29.076Z,1005.6
2023-03-29T10:23:30.075Z,1005.5
2023-03-29T10:24:31.096Z,1005.5
2023-03-29T10:25:32.075Z,1005.5
2023-03-29T10:26:33.164Z,1005.5
2023-03-29T10:27:34.022Z,1005.5
2023-03-29T10:28:35.114Z,1005.5
2023-03-29T10:29:36.073Z,1004.9
2023-03-29T10:30:37.059Z,1005.4
2023-03-29T10:31:38.189Z,1005.4
2023-03-29T10:32:39.098Z,1005.4
2023-03-29T10:33:40.114Z,1005.4
2023-03-29T10:34:41.064Z,1005.4
2023-03-29T10:35:42.114Z,1005.4
2023-03-29T10:36:43.054Z,1005.4
2023-03-29T10:37:44.049Z,1005.4
2023-03-29T10:38:45.080Z,1005.4
2023-03-29T10:39:46.074Z,1005.3
2023-03-29T10:40:47.243Z,1005.3
2023-03-29T10:41:48.085Z,1005.4
2023-03-29T10:42:49.076Z,1005.4
2023-03-29T10:43:50.184Z,1005.4
2023-03-29T10:44:51.057Z,1005.4
2023-03-29T10:45:52.091Z,1005.3
2023-03-29T10:46:53.074Z,1005.2
2023-03-29T10:47:54.079Z,1005.2
2023-03-29T10:48:55.116Z,1004.5
2023-03-29T10:49:57.046Z,1005.1
2023-03-29T10:50:57.106Z,1005.2
2023-03-29T10:51:58.075Z,1005.2
2023-03-29T10:52:59.113Z,1005.2
2023-03-29T10:54:00.094Z,1005.2
2023-03-29T10:55:01.077Z,1005.2
2023-03-29T10:56:02.135Z,1005.2
2023-03-29T10:57:03.147Z,1005.1
2023-03-29T10:58:04.161Z,1005.1
2023-03-29T10:59:05.049Z,1005.1
2023-03-29T11:00:06.122Z,1005.1
2023-03-29T11:01:07.115Z,1005.1
2023-03-29T11:02:08.115Z,1005.1
2023-03-29T11:03:09.198Z,1005.1
2023-03-29T11:04:10.203Z,1005.1
2023-03-29T11:05:11.082Z,1005.1
2023-03-29T11:06:12.154Z,1005.1
2023-03-29T11:07:13.073Z,1005.1
2023-03-29T11:08:14.153Z,1005.1
2023-03-29T11:09:15.133Z,1005.1
2023-03-29T11:10:16.174Z,1005
2023-03-29T11:11:17.021Z,1005
2023-03-29T11:12:18.122Z,1005
2023-03-29T11:13:19.092Z,1005
2023-03-29T11:14:20.129Z,1005.1
2023-03-29T11:15:21.082Z,1005.1
2023-03-29T11:16:22.250Z,1005
2023-03-29T11:17:23.118Z,1005
2023-03-29T11:18:24.074Z,1005
2023-03-29T11:19:25.162Z,1005
2023-03-29T11:20:26.164Z,1005
2023-03-29T11:21:27.138Z,1005
2023-03-29T11:22:28.078Z,1004.9
2023-03-29T11:23:29.053Z,1004.9
2023-03-29T11:24:30.073Z,1004.9
2023-03-29T11:25:31.086Z,1004.8
2023-03-29T11:26:32.112Z,1004.8
2023-03-29T11:27:33.138Z,1004.8
2023-03-29T11:28:34.074Z,1004.7
2023-03-29T11:29:35.097Z,1004.7
2023-03-29T11:30:36.118Z,1004.7
2023-03-29T11:31:38.703Z,1004.7
2023-03-29T11:32:38.137Z,1004.7
2023-03-29T11:33:39.158Z,1004.6
2023-03-29T11:34:40.119Z,1004.6
2023-03-29T11:35:41.267Z,1004.6
2023-03-29T11:36:42.213Z,1004.6
2023-03-29T11:37:43.113Z,1004.6
2023-03-29T11:38:45.354Z,1004.5
2023-03-29T11:39:45.118Z,1004.4
2023-03-29T11:40:46.094Z,1004.4
2023-03-29T11:41:47.124Z,1004.3
2023-03-29T11:42:48.092Z,1004.4
2023-03-29T11:43:49.109Z,1004.4
2023-03-29T11:44:50.788Z,1004.4
2023-03-29T11:45:51.152Z,1004.4
2023-03-29T11:46:52.156Z,1004.3
2023-03-29T11:47:53.218Z,1004.3
2023-03-29T11:48:54.092Z,1004.3
2023-03-29T11:49:55.094Z,1004.3
2023-03-29T11:50:56.163Z,1003.9
2023-03-29T11:51:57.135Z,1004.1
2023-03-29T11:52:58.095Z,1004.3
2023-03-29T11:53:59.134Z,1004.3
2023-03-29T11:55:00.105Z,1004.2
2023-03-29T11:56:02.180Z,1004.1
2023-03-29T11:57:03.246Z,1004.2
2023-03-29T11:58:04.115Z,1004.1
2023-03-29T11:59:05.178Z,1004
2023-03-29T12:00:06.150Z,1004
2023-03-29T12:01:07.152Z,1004.2
2023-03-29T12:02:08.200Z,1004.2
2023-03-29T12:03:09.239Z,1004.2
2023-03-29T12:04:10.266Z,1004.1
2023-03-29T12:05:11.110Z,1004.1
2023-03-29T12:06:12.174Z,1004.1
2023-03-29T12:07:13.213Z,1003.7
2023-03-29T12:08:14.130Z,1004
2023-03-29T12:09:16.766Z,1004
2023-03-29T12:10:16.113Z,1004
2023-03-29T12:11:17.133Z,1004
2023-03-29T12:12:18.160Z,1004
2023-03-29T12:13:19.101Z,1003.9
2023-03-29T12:14:20.131Z,1003.9
2023-03-29T12:15:21.150Z,1004
2023-03-29T12:16:22.169Z,1004
2023-03-29T12:17:23.173Z,1004
2023-03-29T12:18:24.130Z,1004
2023-03-29T12:19:25.130Z,1003.9
2023-03-29T12:20:26.170Z,1003.9
2023-03-29T12:21:27.200Z,1004
2023-03-29T12:22:28.135Z,1003.9
2023-03-29T12:23:29.130Z,1003.9
2023-03-29T12:24:30.153Z,1004
2023-03-29T12:25:31.185Z,1003.9
2023-03-29T12:26:32.210Z,1003.9
2023-03-29T12:27:33.177Z,1003.9
2023-03-29T12:28:34.132Z,1003.8
2023-03-29T12:29:35.143Z,1003.8
2023-03-29T12:30:36.152Z,1003.8
2023-03-29T12:31:37.187Z,1003.8
2023-03-29T12:32:38.205Z,1003.8
2023-03-29T12:33:39.125Z,1003.8
2023-03-29T12:34:40.193Z,1003.8
2023-03-29T12:35:41.169Z,1003.7
2023-03-29T12:36:42.158Z,1003.8
2023-03-29T12:37:43.274Z,1003.7
2023-03-29T12:38:44.217Z,1003.7
2023-03-29T12:39:45.147Z,1003.7
2023-03-29T12:40:46.113Z,1003.7
2023-03-29T12:41:47.140Z,1003.7
2023-03-29T12:42:48.127Z,1003.6
2023-03-29T12:43:49.237Z,1003.6
2023-03-29T12:44:50.166Z,1003.6
2023-03-29T12:45:51.233Z,1003.7
2023-03-29T12:46:52.114Z,1003.6
2023-03-29T12:47:53.284Z,1003.6
2023-03-29T12:48:54.182Z,1003.6
2023-03-29T12:49:55.138Z,1003.7